createdAt,value
2022-12-31T00:02:24.143Z,10.06
2022-12-31T00:04:55.497Z,10.07
2022-12-31T00:07:26.126Z,10.10
2022-12-31T00:09:56.983Z,10.13
2022-12-31T00:12:27.796Z,10.17
2022-12-31T00:14:58.553Z,10.19
2022-12-31T00:17:29.294Z,10.21
2022-12-31T00:20:00.063Z,10.23
2022-12-31T00:22:30.813Z,10.24
2022-12-31T00:25:01.579Z,10.26
2022-12-31T00:27:34.489Z,10.27
2022-12-31T00:30:05.699Z,10.29
2022-12-31T00:32:36.365Z,10.32
2022-12-31T00:35:08.779Z,10.34
2022-12-31T00:37:39.478Z,10.35
2022-12-31T00:40:12.838Z,10.37
2022-12-31T00:42:43.403Z,10.39
2022-12-31T00:45:14.594Z,10.41
2022-12-31T00:47:45.362Z,10.41
2022-12-31T00:50:16.160Z,10.42
2022-12-31T00:52:46.692Z,10.42
2022-12-31T00:55:17.678Z,10.43
2022-12-31T00:57:48.660Z,10.44
2022-12-31T01:00:20.444Z,10.45
2022-12-31T01:02:51.207Z,10.46
2022-12-31T01:05:22.053Z,10.46
2022-12-31T01:07:52.933Z,10.46
2022-12-31T01:10:37.545Z,10.47
2022-12-31T01:13:08.584Z,10.52
2022-12-31T01:15:40.777Z,10.57
2022-12-31T01:18:11.993Z,10.63
2022-12-31T01:20:44.940Z,10.68
2022-12-31T01:23:15.520Z,10.72
2022-12-31T01:25:46.196Z,10.74
2022-12-31T01:28:16.767Z,10.76
2022-12-31T01:30:47.918Z,10.77
2022-12-31T01:33:18.644Z,10.77
2022-12-31T01:35:49.598Z,10.79
2022-12-31T01:38:20.474Z,10.79
2022-12-31T01:40:51.187Z,10.78
2022-12-31T01:43:22.652Z,10.77
2022-12-31T01:45:55.954Z,10.77
2022-12-31T01:48:29.178Z,10.77
2022-12-31T01:51:00.943Z,10.78
2022-12-31T01:53:32.078Z,10.79
2022-12-31T01:56:04.350Z,10.78
2022-12-31T01:58:40.866Z,10.79
2022-12-31T02:01:15.377Z,10.80
2022-12-31T02:03:46.281Z,10.80
2022-12-31T02:06:21.586Z,10.80
2022-12-31T02:08:52.281Z,10.80
2022-12-31T02:11:27.351Z,10.81
2022-12-31T02:14:01.481Z,10.82
2022-12-31T02:16:42.120Z,10.82
2022-12-31T02:19:50.258Z,10.84
2022-12-31T02:22:31.050Z,10.85
2022-12-31T02:25:25.839Z,10.86
2022-12-31T02:28:14.718Z,10.88
2022-12-31T02:30:50.009Z,10.89
2022-12-31T02:33:29.676Z,10.90
2022-12-31T02:36:03.915Z,10.90
2022-12-31T02:38:38.947Z,10.91
2022-12-31T02:41:35.973Z,10.92
2022-12-31T02:44:24.824Z,10.94
2022-12-31T02:47:08.608Z,10.95
2022-12-31T02:49:52.004Z,10.97
2022-12-31T02:52:30.516Z,10.99
2022-12-31T02:55:10.280Z,11.02
2022-12-31T02:57:47.194Z,11.04
2022-12-31T03:00:36.669Z,11.06
2022-12-31T03:03:09.276Z,11.09
2022-12-31T03:05:41.382Z,11.10
2022-12-31T03:08:12.045Z,11.11
2022-12-31T03:10:42.801Z,11.12
2022-12-31T03:13:13.536Z,11.11
2022-12-31T03:15:44.405Z,11.12
2022-12-31T03:18:16.942Z,11.13
2022-12-31T03:21:07.495Z,11.13
2022-12-31T03:23:40.998Z,11.16
2022-12-31T03:26:13.331Z,11.18
2022-12-31T03:28:47.830Z,11.20
2022-12-31T03:31:18.772Z,11.23
2022-12-31T03:33:49.497Z,11.25
2022-12-31T03:36:20.680Z,11.27
2022-12-31T03:38:52.966Z,11.29
2022-12-31T03:41:23.862Z,11.30
2022-12-31T03:43:54.614Z,11.31
2022-12-31T03:46:25.200Z,11.33
2022-12-31T03:48:55.837Z,11.32
2022-12-31T03:51:26.394Z,11.39
2022-12-31T03:53:56.984Z,11.40
2022-12-31T03:56:27.613Z,11.41
2022-12-31T03:58:58.415Z,11.43
2022-12-31T04:01:29.110Z,11.45
2022-12-31T04:03:59.996Z,11.46
2022-12-31T04:06:30.611Z,11.48
2022-12-31T04:09:01.345Z,11.50
2022-12-31T04:11:31.965Z,11.52
2022-12-31T04:14:02.796Z,11.54
2022-12-31T04:16:33.462Z,11.56
2022-12-31T04:19:04.838Z,11.59
2022-12-31T04:21:35.513Z,11.60
2022-12-31T04:24:07.279Z,11.63
2022-12-31T04:26:38.377Z,11.65
2022-12-31T04:29:09.423Z,11.67
2022-12-31T04:31:40.428Z,11.65
2022-12-31T04:34:11.132Z,11.70
2022-12-31T04:36:42.029Z,11.73
2022-12-31T04:39:12.651Z,11.75
2022-12-31T04:41:43.319Z,11.77
2022-12-31T04:44:14.305Z,11.79
2022-12-31T04:46:45.077Z,11.81
2022-12-31T04:49:16.013Z,11.84
2022-12-31T04:51:46.697Z,11.86
2022-12-31T04:54:17.258Z,11.88
2022-12-31T04:56:47.966Z,11.91
2022-12-31T04:59:18.543Z,11.95
2022-12-31T05:01:49.324Z,11.98
2022-12-31T05:04:20.123Z,12.01
2022-12-31T05:06:50.843Z,12.05
2022-12-31T05:09:21.781Z,12.06
2022-12-31T05:11:52.381Z,12.09
2022-12-31T05:14:23.390Z,12.11
2022-12-31T05:16:54.055Z,12.12
2022-12-31T05:19:24.796Z,12.14
2022-12-31T05:22:09.322Z,12.15
2022-12-31T05:24:39.981Z,12.15
2022-12-31T05:27:10.702Z,12.12
2022-12-31T05:29:41.353Z,12.16
2022-12-31T05:32:11.966Z,12.17
2022-12-31T05:34:42.735Z,12.18
2022-12-31T05:37:13.477Z,12.18
2022-12-31T05:39:44.172Z,12.19
2022-12-31T05:42:14.823Z,12.20
2022-12-31T05:44:45.500Z,12.21
2022-12-31T05:47:16.629Z,12.21
2022-12-31T05:49:47.257Z,12.21
2022-12-31T05:52:18.327Z,12.25
2022-12-31T05:54:48.925Z,12.27
2022-12-31T05:57:19.636Z,12.29
2022-12-31T05:59:50.474Z,12.32
2022-12-31T06:02:21.161Z,12.36
2022-12-31T06:04:51.864Z,12.39
2022-12-31T06:07:22.706Z,12.44
2022-12-31T06:09:53.407Z,12.49
2022-12-31T06:12:24.000Z,12.55
2022-12-31T06:14:54.876Z,12.58
2022-12-31T06:17:25.736Z,12.61
2022-12-31T06:19:56.775Z,12.65
2022-12-31T06:22:27.731Z,12.68
2022-12-31T06:24:58.434Z,12.71
2022-12-31T06:27:29.030Z,12.75
2022-12-31T06:29:59.741Z,12.76
2022-12-31T06:32:30.403Z,12.77
2022-12-31T06:35:01.104Z,12.78
2022-12-31T06:37:31.755Z,12.81
2022-12-31T06:40:03.745Z,12.84
2022-12-31T06:42:34.377Z,12.87
2022-12-31T06:45:05.583Z,12.90
2022-12-31T06:47:36.191Z,12.93
2022-12-31T06:50:08.490Z,12.95
2022-12-31T06:52:39.339Z,12.96
2022-12-31T06:55:13.801Z,12.97
2022-12-31T06:57:45.967Z,12.98
2022-12-31T07:00:19.321Z,13.00
2022-12-31T07:03:20.483Z,13.01
2022-12-31T07:05:55.092Z,13.02
2022-12-31T07:08:43.085Z,13.04
2022-12-31T07:11:21.468Z,13.05
2022-12-31T07:14:06.193Z,13.07
2022-12-31T07:16:53.493Z,13.10
2022-12-31T07:19:36.617Z,13.13
2022-12-31T07:22:13.231Z,13.14
2022-12-31T07:24:45.471Z,13.15
2022-12-31T07:27:34.184Z,13.18
2022-12-31T07:30:11.280Z,13.21
2022-12-31T07:33:00.998Z,13.25
2022-12-31T07:35:38.361Z,13.30
2022-12-31T07:38:18.721Z,13.37
2022-12-31T07:41:07.260Z,13.43
2022-12-31T07:43:49.696Z,13.51
2022-12-31T07:46:28.649Z,13.58
2022-12-31T07:49:01.084Z,13.62
2022-12-31T07:51:33.058Z,13.65
2022-12-31T07:54:07.485Z,13.68
2022-12-31T07:56:41.008Z,13.73
2022-12-31T07:59:24.410Z,13.78
2022-12-31T08:02:02.945Z,13.84
2022-12-31T08:04:44.099Z,13.91
2022-12-31T08:07:23.862Z,14.04
2022-12-31T08:10:04.205Z,14.17
2022-12-31T08:12:37.037Z,14.21
2022-12-31T08:15:15.757Z,14.24
2022-12-31T08:17:47.576Z,14.29
2022-12-31T08:20:19.679Z,14.38
2022-12-31T08:23:08.104Z,14.46
2022-12-31T08:26:00.093Z,14.56
2022-12-31T08:28:45.783Z,14.72
2022-12-31T08:31:20.322Z,14.88
2022-12-31T08:34:05.596Z,14.95
2022-12-31T08:36:46.633Z,14.99
2022-12-31T08:39:26.608Z,15.08
2022-12-31T08:41:59.368Z,15.20
2022-12-31T08:44:40.587Z,15.26
2022-12-31T08:47:27.363Z,15.33
2022-12-31T08:49:59.164Z,15.38
2022-12-31T08:52:31.321Z,15.47
2022-12-31T08:55:05.382Z,15.56
2022-12-31T08:57:42.079Z,15.64
2022-12-31T09:00:16.851Z,15.70
2022-12-31T09:02:59.540Z,15.73
2022-12-31T09:05:40.211Z,15.75
2022-12-31T09:08:21.050Z,15.78
2022-12-31T09:10:59.776Z,15.82
2022-12-31T09:13:54.797Z,15.89
2022-12-31T09:16:33.724Z,16.01
2022-12-31T09:19:04.600Z,16.03
2022-12-31T09:21:35.889Z,16.10
2022-12-31T09:24:09.634Z,16.11
2022-12-31T09:26:52.719Z,16.10
2022-12-31T09:29:37.917Z,16.10
2022-12-31T09:32:19.279Z,16.10
2022-12-31T09:34:58.520Z,16.09
2022-12-31T09:37:45.188Z,16.07
2022-12-31T09:40:49.252Z,16.08
2022-12-31T09:44:05.909Z,16.11
2022-12-31T09:47:18.855Z,16.13
2022-12-31T09:50:27.660Z,16.17
2022-12-31T09:53:07.265Z,16.20
2022-12-31T09:55:44.004Z,16.24
2022-12-31T09:58:27.476Z,16.28
2022-12-31T10:01:05.045Z,16.32
2022-12-31T10:03:53.191Z,16.41
2022-12-31T10:06:28.703Z,16.47
2022-12-31T10:09:27.164Z,16.52
2022-12-31T10:12:34.282Z,16.60
2022-12-31T10:15:19.943Z,16.69
2022-12-31T10:18:03.588Z,16.74
2022-12-31T10:20:48.469Z,16.79
2022-12-31T10:23:43.582Z,16.88
2022-12-31T10:26:37.858Z,16.96
2022-12-31T10:29:20.536Z,17.02
2022-12-31T10:32:06.462Z,17.06
2022-12-31T10:34:54.110Z,17.10
2022-12-31T10:37:29.961Z,17.13
2022-12-31T10:40:13.707Z,17.10
2022-12-31T10:43:11.429Z,17.04
2022-12-31T10:46:09.016Z,17.08
2022-12-31T10:49:11.418Z,17.07
2022-12-31T10:52:18.825Z,17.04
2022-12-31T10:55:08.865Z,16.99
2022-12-31T10:58:21.097Z,16.92
2022-12-31T11:01:01.129Z,16.85
2022-12-31T11:04:15.044Z,16.82
2022-12-31T11:07:15.241Z,16.80
2022-12-31T11:10:21.144Z,16.81
2022-12-31T11:13:33.179Z,16.80
2022-12-31T11:16:16.300Z,16.78
2022-12-31T11:18:59.125Z,16.79
2022-12-31T11:21:42.053Z,16.80
2022-12-31T11:24:25.882Z,16.83
2022-12-31T11:27:15.258Z,16.83
2022-12-31T11:30:18.251Z,16.83
2022-12-31T11:33:03.852Z,16.82
2022-12-31T11:35:44.075Z,16.82
2022-12-31T11:38:24.115Z,16.83
2022-12-31T11:41:06.678Z,16.85
2022-12-31T11:43:45.127Z,16.86
2022-12-31T11:46:51.578Z,16.86
2022-12-31T11:49:36.599Z,16.88
2022-12-31T11:52:49.626Z,16.90
2022-12-31T11:55:38.849Z,16.92
2022-12-31T11:58:16.498Z,16.95
2022-12-31T12:00:56.356Z,16.98
2022-12-31T12:03:27.771Z,16.99
2022-12-31T12:06:00.435Z,17.00
2022-12-31T12:08:33.708Z,17.00
2022-12-31T12:11:09.324Z,17.01
2022-12-31T12:13:40.080Z,17.03
2022-12-31T12:16:11.220Z,17.05
2022-12-31T12:18:45.925Z,17.09
2022-12-31T12:21:18.783Z,17.15
2022-12-31T12:24:00.517Z,17.22
2022-12-31T12:26:37.165Z,17.29
2022-12-31T12:29:19.571Z,17.36
2022-12-31T12:32:00.195Z,17.43
2022-12-31T12:34:32.774Z,17.48
2022-12-31T12:37:03.749Z,17.53
2022-12-31T12:39:35.810Z,17.57
2022-12-31T12:42:08.964Z,17.60
2022-12-31T12:44:40.314Z,17.65
2022-12-31T12:47:16.442Z,17.68
2022-12-31T12:49:49.768Z,17.68
2022-12-31T12:52:45.402Z,17.69
2022-12-31T12:55:21.187Z,17.67
2022-12-31T12:58:02.343Z,17.63
2022-12-31T13:00:39.238Z,17.58
2022-12-31T13:03:30.631Z,17.55
2022-12-31T13:06:26.459Z,17.52
2022-12-31T13:09:16.422Z,17.47
2022-12-31T13:12:05.441Z,17.44
2022-12-31T13:14:45.470Z,17.43
2022-12-31T13:17:35.248Z,17.41
2022-12-31T13:20:15.290Z,17.39
2022-12-31T13:22:51.075Z,17.36
2022-12-31T13:25:30.837Z,17.34
2022-12-31T13:28:06.270Z,17.28
2022-12-31T13:30:41.339Z,17.27
2022-12-31T13:33:18.432Z,17.24
2022-12-31T13:35:53.432Z,17.20
2022-12-31T13:38:28.716Z,17.17
2022-12-31T13:41:05.129Z,17.16
2022-12-31T13:43:47.318Z,17.15
2022-12-31T13:46:37.119Z,17.13
2022-12-31T13:49:17.016Z,17.09
2022-12-31T13:51:53.860Z,17.06
2022-12-31T13:54:33.249Z,17.04
2022-12-31T13:57:10.292Z,17.03
2022-12-31T13:59:43.677Z,17.03
2022-12-31T14:02:33.736Z,17.02
2022-12-31T14:05:14.065Z,17.00
2022-12-31T14:07:48.836Z,16.98
2022-12-31T14:10:29.317Z,16.95
2022-12-31T14:13:12.131Z,16.91
2022-12-31T14:15:53.418Z,16.89
2022-12-31T14:18:29.688Z,16.87
2022-12-31T14:21:08.554Z,16.86
2022-12-31T14:23:47.742Z,16.82
2022-12-31T14:26:27.567Z,16.78
2022-12-31T14:29:08.369Z,16.77
2022-12-31T14:32:21.803Z,16.74
2022-12-31T14:35:02.231Z,16.73
2022-12-31T14:37:43.342Z,16.70
2022-12-31T14:40:24.766Z,16.68
2022-12-31T14:43:11.333Z,16.65
2022-12-31T14:45:54.968Z,16.60
2022-12-31T14:48:38.724Z,16.57
2022-12-31T14:51:10.354Z,16.53
2022-12-31T14:53:41.196Z,16.50
2022-12-31T14:56:31.037Z,16.48
2022-12-31T14:59:03.774Z,16.46
2022-12-31T15:01:45.598Z,16.44
2022-12-31T15:04:17.948Z,16.41
2022-12-31T15:06:59.368Z,16.39
2022-12-31T15:09:51.325Z,16.37
2022-12-31T15:12:40.284Z,16.34
2022-12-31T15:15:34.810Z,16.35
2022-12-31T15:18:24.451Z,16.35
2022-12-31T15:21:14.852Z,16.34
2022-12-31T15:23:46.127Z,16.36
2022-12-31T15:26:26.092Z,16.33
2022-12-31T15:29:06.157Z,16.30
2022-12-31T15:31:37.842Z,16.27
2022-12-31T15:34:25.553Z,16.23
2022-12-31T15:36:58.901Z,16.22
2022-12-31T15:39:41.678Z,16.21
2022-12-31T15:42:47.267Z,16.20
2022-12-31T15:45:27.311Z,16.20
2022-12-31T15:48:03.119Z,16.20
2022-12-31T15:50:37.800Z,16.22
2022-12-31T15:53:09.726Z,16.22
2022-12-31T15:55:45.337Z,16.21
2022-12-31T15:58:20.464Z,16.19
2022-12-31T16:01:00.907Z,16.17
2022-12-31T16:03:33.261Z,16.13
2022-12-31T16:06:09.258Z,16.10
2022-12-31T16:08:41.592Z,16.10
2022-12-31T16:11:12.919Z,16.09
2022-12-31T16:13:46.743Z,16.08
2022-12-31T16:16:25.734Z,16.06
2022-12-31T16:18:57.697Z,16.06
2022-12-31T16:21:34.113Z,16.04
2022-12-31T16:24:08.076Z,16.02
2022-12-31T16:26:45.472Z,15.99
2022-12-31T16:29:20.909Z,15.96
2022-12-31T16:31:53.988Z,15.92
2022-12-31T16:34:26.978Z,15.88
2022-12-31T16:37:04.465Z,15.85
2022-12-31T16:39:37.131Z,15.82
2022-12-31T16:42:20.938Z,15.78
2022-12-31T16:44:55.477Z,15.74
2022-12-31T16:47:33.457Z,15.72
2022-12-31T16:50:07.851Z,15.69
2022-12-31T16:52:42.013Z,15.67
2022-12-31T16:55:19.039Z,15.64
2022-12-31T16:57:55.459Z,15.61
2022-12-31T17:00:27.376Z,15.59
2022-12-31T17:03:08.883Z,15.56
2022-12-31T17:05:58.876Z,15.58
2022-12-31T17:08:40.094Z,15.57
2022-12-31T17:11:28.692Z,15.57
2022-12-31T17:14:08.376Z,15.57
2022-12-31T17:16:43.865Z,15.59
2022-12-31T17:19:40.227Z,15.60
2022-12-31T17:22:19.983Z,15.63
2022-12-31T17:24:53.920Z,15.66
2022-12-31T17:27:24.603Z,15.68
2022-12-31T17:29:55.375Z,15.69
2022-12-31T17:32:36.823Z,15.70
2022-12-31T17:35:30.117Z,15.72
2022-12-31T17:38:30.821Z,15.74
2022-12-31T17:41:17.315Z,15.76
2022-12-31T17:43:52.097Z,15.79
2022-12-31T17:46:23.734Z,15.79
2022-12-31T17:48:57.343Z,15.79
2022-12-31T17:51:28.237Z,15.77
2022-12-31T17:54:00.293Z,15.75
2022-12-31T17:56:31.056Z,15.74
2022-12-31T17:59:05.428Z,15.75
2022-12-31T18:01:36.615Z,15.73
2022-12-31T18:04:10.977Z,15.72
2022-12-31T18:06:42.107Z,15.70
2022-12-31T18:09:13.552Z,15.69
2022-12-31T18:11:44.963Z,15.71
2022-12-31T18:14:17.454Z,15.72
2022-12-31T18:16:46.560Z,15.71
2022-12-31T18:19:45.876Z,15.69
2022-12-31T18:22:11.103Z,15.67
2022-12-31T18:24:41.939Z,15.65
2022-12-31T18:27:18.310Z,15.63
2022-12-31T18:29:49.192Z,15.61
2022-12-31T18:32:27.100Z,15.59
2022-12-31T18:34:57.831Z,15.57
2022-12-31T18:37:30.946Z,15.56
2022-12-31T18:40:01.569Z,15.54
2022-12-31T18:42:32.327Z,15.47
2022-12-31T18:45:03.415Z,15.47
2022-12-31T18:47:37.683Z,15.45
2022-12-31T18:50:11.228Z,15.46
2022-12-31T18:52:42.293Z,15.45
2022-12-31T18:55:25.780Z,15.46
2022-12-31T18:57:56.440Z,15.47
2022-12-31T19:00:27.168Z,15.47
2022-12-31T19:02:57.983Z,15.47
2022-12-31T19:05:31.075Z,15.47
2022-12-31T19:08:02.309Z,15.48
2022-12-31T19:10:33.632Z,15.48
2022-12-31T19:13:04.494Z,15.48
2022-12-31T19:15:42.517Z,15.47
2022-12-31T19:18:13.345Z,15.46
2022-12-31T19:20:44.257Z,15.45
2022-12-31T19:23:20.357Z,15.44
2022-12-31T19:25:51.949Z,15.43
2022-12-31T19:28:25.908Z,15.43
2022-12-31T19:30:56.711Z,15.41
2022-12-31T19:33:27.355Z,15.40
2022-12-31T19:35:58.000Z,15.38
2022-12-31T19:38:32.151Z,15.37
2022-12-31T19:41:04.013Z,15.35
2022-12-31T19:43:34.766Z,15.34
2022-12-31T19:46:06.564Z,15.34
2022-12-31T19:48:37.349Z,15.34
2022-12-31T19:51:11.856Z,15.33
2022-12-31T19:53:42.496Z,15.32
2022-12-31T19:56:16.913Z,15.29
2022-12-31T19:58:47.866Z,15.28
2022-12-31T20:01:23.365Z,15.26
2022-12-31T20:03:56.353Z,15.25
2022-12-31T20:06:27.009Z,15.23
2022-12-31T20:08:57.766Z,15.21
2022-12-31T20:11:28.963Z,15.20
2022-12-31T20:13:59.966Z,15.18
2022-12-31T20:16:31.850Z,15.17
2022-12-31T20:19:02.678Z,15.17
2022-12-31T20:21:33.264Z,15.18
2022-12-31T20:24:03.939Z,15.18
2022-12-31T20:26:34.528Z,15.18
2022-12-31T20:29:05.175Z,15.17
2022-12-31T20:31:35.886Z,15.17
2022-12-31T20:34:06.514Z,15.15
2022-12-31T20:36:37.804Z,15.14
2022-12-31T20:39:08.992Z,15.13
2022-12-31T20:41:39.684Z,15.15
2022-12-31T20:44:10.413Z,15.20
2022-12-31T20:46:42.077Z,15.22
2022-12-31T20:49:26.872Z,15.25
2022-12-31T20:52:08.267Z,15.30
2022-12-31T20:54:39.220Z,15.34
2022-12-31T20:57:09.943Z,15.37
2022-12-31T20:59:40.609Z,15.40
2022-12-31T21:02:22.885Z,15.41
2022-12-31T21:04:57.243Z,15.44
2022-12-31T21:07:28.005Z,15.48
2022-12-31T21:09:58.608Z,15.57
2022-12-31T21:12:45.506Z,15.62
2022-12-31T21:15:16.440Z,15.66
2022-12-31T21:17:47.262Z,15.69
2022-12-31T21:20:18.033Z,15.71
2022-12-31T21:22:48.762Z,15.73
2022-12-31T21:25:19.471Z,15.77
2022-12-31T21:27:50.046Z,15.81
2022-12-31T21:30:21.075Z,15.86
2022-12-31T21:32:51.874Z,15.91
2022-12-31T21:38:13.272Z,15.91
2022-12-31T21:40:45.071Z,15.94
2022-12-31T21:43:16.439Z,15.98
2022-12-31T21:45:47.362Z,15.99
2022-12-31T21:48:21.976Z,16.00
2022-12-31T21:50:54.914Z,16.01
2022-12-31T21:53:34.162Z,16.02
2022-12-31T21:56:10.101Z,16.03
2022-12-31T21:58:42.268Z,16.06
2022-12-31T22:01:36.635Z,16.11
2022-12-31T22:04:28.174Z,16.15
2022-12-31T22:06:58.826Z,16.22
2022-12-31T22:09:29.724Z,16.25
2022-12-31T22:12:00.702Z,16.28
2022-12-31T22:14:31.479Z,16.30
2022-12-31T22:17:02.098Z,16.31
2022-12-31T22:19:43.482Z,16.29
2022-12-31T22:22:23.345Z,16.28
2022-12-31T22:24:54.106Z,16.30
2022-12-31T22:27:28.323Z,16.28
2022-12-31T22:30:00.826Z,16.26
2022-12-31T22:32:31.518Z,16.24
2022-12-31T22:35:02.123Z,16.22
2022-12-31T22:37:56.476Z,16.21
2022-12-31T22:40:23.448Z,16.19
2022-12-31T22:42:54.056Z,16.18
2022-12-31T22:45:24.760Z,16.17
2022-12-31T22:47:55.836Z,16.15
2022-12-31T22:50:26.421Z,16.13
2022-12-31T22:52:57.037Z,16.13
2022-12-31T22:55:28.491Z,16.12
2022-12-31T22:57:59.170Z,16.11
2022-12-31T23:00:41.165Z,16.11
2022-12-31T23:03:11.783Z,16.08
2022-12-31T23:05:42.925Z,16.09
2022-12-31T23:08:22.335Z,16.10
2022-12-31T23:11:03.709Z,16.10
2022-12-31T23:13:57.529Z,16.11
2022-12-31T23:16:48.376Z,16.12
2022-12-31T23:19:36.371Z,16.14
2022-12-31T23:22:24.642Z,16.13
2022-12-31T23:24:55.264Z,16.11
2022-12-31T23:27:26.313Z,16.09
2022-12-31T23:29:57.600Z,16.02
2022-12-31T23:32:28.235Z,16.04
2022-12-31T23:34:58.899Z,16.02
2022-12-31T23:37:29.631Z,16.01
2022-12-31T23:40:00.413Z,16.01
2022-12-31T23:42:31.034Z,16.00
2022-12-31T23:45:01.883Z,16.00
2022-12-31T23:47:32.853Z,16.01
2022-12-31T23:50:03.459Z,16.01
2022-12-31T23:52:33.993Z,15.99
2022-12-31T23:55:05.039Z,15.98
2022-12-31T23:57:35.684Z,15.97
